sensor_id;sensor_type;location;lat;lon;timestamp;temperature;humidity
17307;DHT22;8771;48.048;7.682;2023-07-31T00:03:50;18.20;63.30
17307;DHT22;8771;48.048;7.682;2023-07-31T00:08:54;18.10;63.20
17307;DHT22;8771;48.048;7.682;2023-07-31T00:13:56;18.10;63.30
17307;DHT22;8771;48.048;7.682;2023-07-31T00:18:58;18.10;63.40
17307;DHT22;8771;48.048;7.682;2023-07-31T00:24:01;18.10;63.30
17307;DHT22;8771;48.048;7.682;2023-07-31T00:29:03;18.00;63.30
17307;DHT22;8771;48.048;7.682;2023-07-31T00:34:05;18.00;63.30
17307;DHT22;8771;48.048;7.682;2023-07-31T00:39:08;18.00;63.40
17307;DHT22;8771;48.048;7.682;2023-07-31T00:44:10;18.00;63.40
17307;DHT22;8771;48.048;7.682;2023-07-31T00:49:12;18.00;63.40
17307;DHT22;8771;48.048;7.682;2023-07-31T00:54:16;17.90;63.40
17307;DHT22;8771;48.048;7.682;2023-07-31T00:59:18;17.80;63.50
17307;DHT22;8771;48.048;7.682;2023-07-31T01:04:20;17.80;63.50
17307;DHT22;8771;48.048;7.682;2023-07-31T01:09:31;17.80;63.50
17307;DHT22;8771;48.048;7.682;2023-07-31T01:14:34;17.80;63.50
17307;DHT22;8771;48.048;7.682;2023-07-31T01:19:36;17.80;63.50
17307;DHT22;8771;48.048;7.682;2023-07-31T01:24:46;17.70;63.50
17307;DHT22;8771;48.048;7.682;2023-07-31T01:29:59;17.70;63.50
17307;DHT22;8771;48.048;7.682;2023-07-31T01:35:02;17.70;63.60
17307;DHT22;8771;48.048;7.682;2023-07-31T01:40:05;17.70;63.70
17307;DHT22;8771;48.048;7.682;2023-07-31T01:45:10;17.70;63.70
17307;DHT22;8771;48.048;7.682;2023-07-31T01:50:12;17.70;63.70
17307;DHT22;8771;48.048;7.682;2023-07-31T01:55:14;17.70;63.70
17307;DHT22;8771;48.048;7.682;2023-07-31T02:00:18;17.70;63.70
17307;DHT22;8771;48.048;7.682;2023-07-31T02:05:21;17.60;63.60
17307;DHT22;8771;48.048;7.682;2023-07-31T02:10:23;17.60;64.50
17307;DHT22;8771;48.048;7.682;2023-07-31T02:15:26;17.60;63.70
17307;DHT22;8771;48.048;7.682;2023-07-31T02:20:28;17.50;63.80
17307;DHT22;8771;48.048;7.682;2023-07-31T02:25:30;17.40;63.80
17307;DHT22;8771;48.048;7.682;2023-07-31T02:30:33;17.40;63.80
17307;DHT22;8771;48.048;7.682;2023-07-31T02:35:35;17.40;63.90
17307;DHT22;8771;48.048;7.682;2023-07-31T02:40:39;17.40;63.90
17307;DHT22;8771;48.048;7.682;2023-07-31T02:45:43;17.30;63.90
17307;DHT22;8771;48.048;7.682;2023-07-31T02:50:44;17.30;63.90
17307;DHT22;8771;48.048;7.682;2023-07-31T02:55:46;17.30;63.90
17307;DHT22;8771;48.048;7.682;2023-07-31T03:00:50;17.30;63.90
17307;DHT22;8771;48.048;7.682;2023-07-31T03:05:52;17.30;63.90
17307;DHT22;8771;48.048;7.682;2023-07-31T03:10:54;17.30;63.90
17307;DHT22;8771;48.048;7.682;2023-07-31T03:15:57;17.30;63.90
17307;DHT22;8771;48.048;7.682;2023-07-31T03:20:59;17.30;63.90
17307;DHT22;8771;48.048;7.682;2023-07-31T03:26:02;17.30;63.90
17307;DHT22;8771;48.048;7.682;2023-07-31T03:31:06;17.30;63.90
17307;DHT22;8771;48.048;7.682;2023-07-31T03:36:09;17.30;63.80
17307;DHT22;8771;48.048;7.682;2023-07-31T03:41:11;17.40;63.80
17307;DHT22;8771;48.048;7.682;2023-07-31T03:46:14;17.40;63.80
17307;DHT22;8771;48.048;7.682;2023-07-31T03:51:16;17.40;63.80
17307;DHT22;8771;48.048;7.682;2023-07-31T03:56:18;17.50;63.70
17307;DHT22;8771;48.048;7.682;2023-07-31T04:01:21;17.50;63.70
17307;DHT22;8771;48.048;7.682;2023-07-31T04:06:23;17.60;63.60
17307;DHT22;8771;48.048;7.682;2023-07-31T04:11:26;17.60;63.60
17307;DHT22;8771;48.048;7.682;2023-07-31T04:16:29;17.60;63.50
17307;DHT22;8771;48.048;7.682;2023-07-31T04:21:31;17.60;63.60
17307;DHT22;8771;48.048;7.682;2023-07-31T04:26:33;17.60;63.50
17307;DHT22;8771;48.048;7.682;2023-07-31T04:31:36;17.60;63.50
17307;DHT22;8771;48.048;7.682;2023-07-31T04:36:38;17.70;63.50
17307;DHT22;8771;48.048;7.682;2023-07-31T04:41:40;17.70;63.60
17307;DHT22;8771;48.048;7.682;2023-07-31T04:46:43;17.70;63.50
17307;DHT22;8771;48.048;7.682;2023-07-31T04:51:46;17.70;63.40
17307;DHT22;8771;48.048;7.682;2023-07-31T04:56:48;17.80;63.40
17307;DHT22;8771;48.048;7.682;2023-07-31T05:01:51;17.80;63.40
17307;DHT22;8771;48.048;7.682;2023-07-31T05:06:53;17.80;64.10
17307;DHT22;8771;48.048;7.682;2023-07-31T05:11:55;17.80;63.40
17307;DHT22;8771;48.048;7.682;2023-07-31T05:16:58;17.90;63.40
17307;DHT22;8771;48.048;7.682;2023-07-31T05:22:00;17.90;63.40
17307;DHT22;8771;48.048;7.682;2023-07-31T05:27:02;18.00;63.20
17307;DHT22;8771;48.048;7.682;2023-07-31T05:32:07;18.10;63.20
17307;DHT22;8771;48.048;7.682;2023-07-31T05:37:10;18.10;63.10
17307;DHT22;8771;48.048;7.682;2023-07-31T05:42:11;18.20;63.10
17307;DHT22;8771;48.048;7.682;2023-07-31T05:47:15;18.30;63.10
17307;DHT22;8771;48.048;7.682;2023-07-31T05:52:17;18.30;62.90
17307;DHT22;8771;48.048;7.682;2023-07-31T05:57:19;18.50;63.00
17307;DHT22;8771;48.048;7.682;2023-07-31T06:02:23;18.60;62.90
17307;DHT22;8771;48.048;7.682;2023-07-31T06:07:24;18.80;62.60
17307;DHT22;8771;48.048;7.682;2023-07-31T06:12:27;19.00;62.40
17307;DHT22;8771;48.048;7.682;2023-07-31T06:17:30;19.30;62.10
17307;DHT22;8771;48.048;7.682;2023-07-31T06:22:33;19.40;61.90
17307;DHT22;8771;48.048;7.682;2023-07-31T06:27:35;19.60;61.90
17307;DHT22;8771;48.048;7.682;2023-07-31T06:32:39;19.60;61.70
17307;DHT22;8771;48.048;7.682;2023-07-31T06:37:42;19.70;61.70
17307;DHT22;8771;48.048;7.682;2023-07-31T06:42:45;19.80;61.70
17307;DHT22;8771;48.048;7.682;2023-07-31T06:47:48;19.80;61.70
17307;DHT22;8771;48.048;7.682;2023-07-31T06:52:50;19.90;61.70
17307;DHT22;8771;48.048;7.682;2023-07-31T06:57:53;20.00;61.60
17307;DHT22;8771;48.048;7.682;2023-07-31T07:02:57;20.20;61.40
17307;DHT22;8771;48.048;7.682;2023-07-31T07:07:59;20.30;61.30
17307;DHT22;8771;48.048;7.682;2023-07-31T07:13:01;20.40;61.30
17307;DHT22;8771;48.048;7.682;2023-07-31T07:18:04;20.60;61.30
17307;DHT22;8771;48.048;7.682;2023-07-31T07:28:09;21.40;59.90
17307;DHT22;8771;48.048;7.682;2023-07-31T07:33:12;21.80;59.90
17307;DHT22;8771;48.048;7.682;2023-07-31T07:38:14;22.20;59.50
17307;DHT22;8771;48.048;7.682;2023-07-31T07:43:16;22.70;59.00
17307;DHT22;8771;48.048;7.682;2023-07-31T07:48:20;23.10;58.70
17307;DHT22;8771;48.048;7.682;2023-07-31T07:53:22;23.30;58.60
17307;DHT22;8771;48.048;7.682;2023-07-31T07:58:23;23.40;58.70
17307;DHT22;8771;48.048;7.682;2023-07-31T08:03:28;23.40;58.80
17307;DHT22;8771;48.048;7.682;2023-07-31T08:08:31;23.40;59.60
17307;DHT22;8771;48.048;7.682;2023-07-31T08:13:33;23.50;59.10
17307;DHT22;8771;48.048;7.682;2023-07-31T08:18:38;23.50;59.10
17307;DHT22;8771;48.048;7.682;2023-07-31T08:23:41;23.70;59.20
17307;DHT22;8771;48.048;7.682;2023-07-31T08:28:43;24.00;58.90
17307;DHT22;8771;48.048;7.682;2023-07-31T08:33:46;24.30;58.50
17307;DHT22;8771;48.048;7.682;2023-07-31T08:38:48;24.50;58.40
17307;DHT22;8771;48.048;7.682;2023-07-31T08:43:52;24.70;58.30
17307;DHT22;8771;48.048;7.682;2023-07-31T08:48:55;24.90;58.20
17307;DHT22;8771;48.048;7.682;2023-07-31T08:53:59;25.20;58.00
17307;DHT22;8771;48.048;7.682;2023-07-31T08:59:02;25.40;57.80
17307;DHT22;8771;48.048;7.682;2023-07-31T09:04:09;25.70;57.80
17307;DHT22;8771;48.048;7.682;2023-07-31T09:09:12;25.90;57.60
17307;DHT22;8771;48.048;7.682;2023-07-31T09:14:15;26.10;57.70
17307;DHT22;8771;48.048;7.682;2023-07-31T09:19:25;26.40;57.50
17307;DHT22;8771;48.048;7.682;2023-07-31T09:24:28;26.80;57.20
17307;DHT22;8771;48.048;7.682;2023-07-31T09:29:30;27.00;57.00
17307;DHT22;8771;48.048;7.682;2023-07-31T09:34:38;27.30;56.90
17307;DHT22;8771;48.048;7.682;2023-07-31T09:39:46;27.70;56.70
17307;DHT22;8771;48.048;7.682;2023-07-31T09:44:48;27.80;56.60
17307;DHT22;8771;48.048;7.682;2023-07-31T09:49:52;28.00;56.70
17307;DHT22;8771;48.048;7.682;2023-07-31T09:54:54;28.00;56.70
17307;DHT22;8771;48.048;7.682;2023-07-31T09:59:56;28.00;57.00
17307;DHT22;8771;48.048;7.682;2023-07-31T10:05:02;28.20;56.90
17307;DHT22;8771;48.048;7.682;2023-07-31T10:10:05;28.30;56.90
17307;DHT22;8771;48.048;7.682;2023-07-31T10:15:09;28.40;56.90
17307;DHT22;8771;48.048;7.682;2023-07-31T10:20:12;28.60;56.70
17307;DHT22;8771;48.048;7.682;2023-07-31T10:25:18;28.70;56.70
17307;DHT22;8771;48.048;7.682;2023-07-31T10:30:23;28.90;56.60
17307;DHT22;8771;48.048;7.682;2023-07-31T10:35:28;29.00;56.50
17307;DHT22;8771;48.048;7.682;2023-07-31T10:40:29;29.00;56.70
17307;DHT22;8771;48.048;7.682;2023-07-31T10:45:33;29.20;56.60
17307;DHT22;8771;48.048;7.682;2023-07-31T10:50:40;29.30;56.50
17307;DHT22;8771;48.048;7.682;2023-07-31T10:55:47;29.10;56.60
17307;DHT22;8771;48.048;7.682;2023-07-31T11:00:55;28.90;56.90
17307;DHT22;8771;48.048;7.682;2023-07-31T11:06:02;28.90;57.00
17307;DHT22;8771;48.048;7.682;2023-07-31T11:11:06;28.80;57.10
17307;DHT22;8771;48.048;7.682;2023-07-31T11:16:10;28.80;57.10
17307;DHT22;8771;48.048;7.682;2023-07-31T11:21:15;28.80;57.10
17307;DHT22;8771;48.048;7.682;2023-07-31T11:26:18;28.80;57.10
17307;DHT22;8771;48.048;7.682;2023-07-31T11:31:20;28.90;57.00
17307;DHT22;8771;48.048;7.682;2023-07-31T11:36:23;28.70;57.00
17307;DHT22;8771;48.048;7.682;2023-07-31T11:41:29;28.70;57.20
17307;DHT22;8771;48.048;7.682;2023-07-31T11:46:31;28.60;57.20
17307;DHT22;8771;48.048;7.682;2023-07-31T11:51:34;28.60;57.10
17307;DHT22;8771;48.048;7.682;2023-07-31T11:56:36;28.70;57.00
17307;DHT22;8771;48.048;7.682;2023-07-31T12:01:38;28.80;56.80
17307;DHT22;8771;48.048;7.682;2023-07-31T12:06:44;28.80;56.80
17307;DHT22;8771;48.048;7.682;2023-07-31T12:11:46;28.80;56.80
17307;DHT22;8771;48.048;7.682;2023-07-31T12:16:53;28.80;56.80
17307;DHT22;8771;48.048;7.682;2023-07-31T12:21:58;29.00;56.60
17307;DHT22;8771;48.048;7.682;2023-07-31T12:27:00;29.20;56.30
17307;DHT22;8771;48.048;7.682;2023-07-31T12:32:20;29.30;56.20
17307;DHT22;8771;48.048;7.682;2023-07-31T12:37:23;29.40;56.70
17307;DHT22;8771;48.048;7.682;2023-07-31T12:42:25;29.30;56.20
17307;DHT22;8771;48.048;7.682;2023-07-31T12:47:27;29.30;56.30
17307;DHT22;8771;48.048;7.682;2023-07-31T12:52:31;29.40;56.20
17307;DHT22;8771;48.048;7.682;2023-07-31T12:57:33;29.50;56.00
17307;DHT22;8771;48.048;7.682;2023-07-31T13:02:35;29.60;55.90
17307;DHT22;8771;48.048;7.682;2023-07-31T13:07:38;29.50;56.50
17307;DHT22;8771;48.048;7.682;2023-07-31T13:12:40;29.50;56.10
17307;DHT22;8771;48.048;7.682;2023-07-31T13:17:42;29.50;56.10
17307;DHT22;8771;48.048;7.682;2023-07-31T13:22:45;29.40;56.10
17307;DHT22;8771;48.048;7.682;2023-07-31T13:27:47;29.40;56.10
17307;DHT22;8771;48.048;7.682;2023-07-31T13:32:49;29.40;56.10
17307;DHT22;8771;48.048;7.682;2023-07-31T13:37:53;29.40;56.00
17307;DHT22;8771;48.048;7.682;2023-07-31T13:42:54;29.50;56.00
17307;DHT22;8771;48.048;7.682;2023-07-31T13:47:56;29.50;55.90
17307;DHT22;8771;48.048;7.682;2023-07-31T13:53:00;29.60;55.90
17307;DHT22;8771;48.048;7.682;2023-07-31T13:58:01;29.60;55.80
17307;DHT22;8771;48.048;7.682;2023-07-31T14:03:04;29.60;55.70
17307;DHT22;8771;48.048;7.682;2023-07-31T14:08:07;29.60;55.70
17307;DHT22;8771;48.048;7.682;2023-07-31T14:13:09;29.60;55.80
17307;DHT22;8771;48.048;7.682;2023-07-31T14:18:11;29.60;55.70
17307;DHT22;8771;48.048;7.682;2023-07-31T14:23:14;29.60;55.70
17307;DHT22;8771;48.048;7.682;2023-07-31T14:28:20;29.60;55.70
17307;DHT22;8771;48.048;7.682;2023-07-31T14:33:22;29.60;55.70
17307;DHT22;8771;48.048;7.682;2023-07-31T14:38:25;29.80;55.40
17307;DHT22;8771;48.048;7.682;2023-07-31T14:43:27;29.90;55.20
17307;DHT22;8771;48.048;7.682;2023-07-31T14:48:29;30.00;55.30
17307;DHT22;8771;48.048;7.682;2023-07-31T14:53:32;30.00;55.20
17307;DHT22;8771;48.048;7.682;2023-07-31T14:58:34;30.00;55.30
17307;DHT22;8771;48.048;7.682;2023-07-31T15:03:36;30.00;55.30
17307;DHT22;8771;48.048;7.682;2023-07-31T15:08:42;30.00;55.20
17307;DHT22;8771;48.048;7.682;2023-07-31T15:13:44;30.00;55.10
17307;DHT22;8771;48.048;7.682;2023-07-31T15:18:46;30.00;55.10
17307;DHT22;8771;48.048;7.682;2023-07-31T15:23:49;29.90;55.20
17307;DHT22;8771;48.048;7.682;2023-07-31T15:29:00;30.00;55.10
17307;DHT22;8771;48.048;7.682;2023-07-31T15:34:02;30.00;55.10
17307;DHT22;8771;48.048;7.682;2023-07-31T15:39:05;29.90;55.10
17307;DHT22;8771;48.048;7.682;2023-07-31T15:44:08;29.90;55.10
17307;DHT22;8771;48.048;7.682;2023-07-31T15:49:10;29.80;55.30
17307;DHT22;8771;48.048;7.682;2023-07-31T15:54:15;29.60;55.50
17307;DHT22;8771;48.048;7.682;2023-07-31T15:59:19;29.40;55.60
17307;DHT22;8771;48.048;7.682;2023-07-31T16:04:21;29.20;55.70
17307;DHT22;8771;48.048;7.682;2023-07-31T16:09:24;29.00;55.90
17307;DHT22;8771;48.048;7.682;2023-07-31T16:14:26;28.90;56.00
17307;DHT22;8771;48.048;7.682;2023-07-31T16:19:29;28.70;56.00
17307;DHT22;8771;48.048;7.682;2023-07-31T16:24:33;28.60;56.10
17307;DHT22;8771;48.048;7.682;2023-07-31T16:29:35;28.50;56.20
17307;DHT22;8771;48.048;7.682;2023-07-31T16:34:38;28.30;56.20
17307;DHT22;8771;48.048;7.682;2023-07-31T16:39:42;28.10;56.30
17307;DHT22;8771;48.048;7.682;2023-07-31T16:44:48;27.90;56.40
17307;DHT22;8771;48.048;7.682;2023-07-31T16:49:50;27.80;56.50
17307;DHT22;8771;48.048;7.682;2023-07-31T16:54:53;27.70;56.50
17307;DHT22;8771;48.048;7.682;2023-07-31T16:59:55;27.60;56.50
17307;DHT22;8771;48.048;7.682;2023-07-31T17:04:57;27.50;56.50
17307;DHT22;8771;48.048;7.682;2023-07-31T17:10:01;27.40;56.50
17307;DHT22;8771;48.048;7.682;2023-07-31T17:15:03;27.40;56.50
17307;DHT22;8771;48.048;7.682;2023-07-31T17:20:07;27.30;56.50
17307;DHT22;8771;48.048;7.682;2023-07-31T17:25:10;27.20;56.40
17307;DHT22;8771;48.048;7.682;2023-07-31T17:30:12;27.10;56.50
17307;DHT22;8771;48.048;7.682;2023-07-31T17:35:14;27.00;56.50
17307;DHT22;8771;48.048;7.682;2023-07-31T17:40:18;26.90;56.70
17307;DHT22;8771;48.048;7.682;2023-07-31T17:45:20;26.80;56.70
17307;DHT22;8771;48.048;7.682;2023-07-31T17:50:22;26.60;56.70
17307;DHT22;8771;48.048;7.682;2023-07-31T17:55:25;26.50;56.80
17307;DHT22;8771;48.048;7.682;2023-07-31T18:00:27;26.40;56.90
17307;DHT22;8771;48.048;7.682;2023-07-31T18:05:30;26.30;56.80
17307;DHT22;8771;48.048;7.682;2023-07-31T18:10:33;26.20;56.80
17307;DHT22;8771;48.048;7.682;2023-07-31T18:15:35;26.20;56.80
17307;DHT22;8771;48.048;7.682;2023-07-31T18:20:39;26.10;56.70
17307;DHT22;8771;48.048;7.682;2023-07-31T18:25:43;26.00;56.70
17307;DHT22;8771;48.048;7.682;2023-07-31T18:30:45;25.90;56.80
17307;DHT22;8771;48.048;7.682;2023-07-31T18:35:47;25.90;56.80
17307;DHT22;8771;48.048;7.682;2023-07-31T18:40:50;25.80;56.80
17307;DHT22;8771;48.048;7.682;2023-07-31T18:45:52;25.60;56.90
17307;DHT22;8771;48.048;7.682;2023-07-31T18:50:54;25.50;57.00
17307;DHT22;8771;48.048;7.682;2023-07-31T18:55:58;25.40;57.00
17307;DHT22;8771;48.048;7.682;2023-07-31T19:01:00;25.30;57.00
17307;DHT22;8771;48.048;7.682;2023-07-31T19:06:03;25.30;57.00
17307;DHT22;8771;48.048;7.682;2023-07-31T19:11:07;25.20;57.00
17307;DHT22;8771;48.048;7.682;2023-07-31T19:16:11;25.20;57.00
17307;DHT22;8771;48.048;7.682;2023-07-31T19:21:14;25.10;57.00
17307;DHT22;8771;48.048;7.682;2023-07-31T19:26:18;25.10;57.00
17307;DHT22;8771;48.048;7.682;2023-07-31T19:31:20;25.10;57.00
17307;DHT22;8771;48.048;7.682;2023-07-31T19:36:22;25.00;57.00
17307;DHT22;8771;48.048;7.682;2023-07-31T19:41:26;25.00;57.00
17307;DHT22;8771;48.048;7.682;2023-07-31T19:46:28;24.90;57.10
17307;DHT22;8771;48.048;7.682;2023-07-31T19:51:30;24.70;57.20
17307;DHT22;8771;48.048;7.682;2023-07-31T19:56:34;24.50;57.50
17307;DHT22;8771;48.048;7.682;2023-07-31T20:01:36;24.30;57.70
17307;DHT22;8771;48.048;7.682;2023-07-31T20:06:38;24.20;57.90
17307;DHT22;8771;48.048;7.682;2023-07-31T20:11:41;24.10;58.00
17307;DHT22;8771;48.048;7.682;2023-07-31T20:16:43;23.90;58.10
17307;DHT22;8771;48.048;7.682;2023-07-31T20:21:45;23.80;58.20
17307;DHT22;8771;48.048;7.682;2023-07-31T20:26:48;23.70;58.40
17307;DHT22;8771;48.048;7.682;2023-07-31T20:31:50;23.50;58.40
17307;DHT22;8771;48.048;7.682;2023-07-31T20:36:52;23.40;58.60
17307;DHT22;8771;48.048;7.682;2023-07-31T20:41:56;23.30;58.70
17307;DHT22;8771;48.048;7.682;2023-07-31T20:46:58;23.20;58.80
17307;DHT22;8771;48.048;7.682;2023-07-31T20:51:59;23.20;58.80
17307;DHT22;8771;48.048;7.682;2023-07-31T20:57:03;23.20;58.80
17307;DHT22;8771;48.048;7.682;2023-07-31T21:02:06;23.10;58.80
17307;DHT22;8771;48.048;7.682;2023-07-31T21:07:08;23.00;58.90
17307;DHT22;8771;48.048;7.682;2023-07-31T21:12:16;23.00;58.90
17307;DHT22;8771;48.048;7.682;2023-07-31T21:17:18;22.90;59.00
17307;DHT22;8771;48.048;7.682;2023-07-31T21:22:20;22.80;59.00
17307;DHT22;8771;48.048;7.682;2023-07-31T21:27:23;22.80;59.10
17307;DHT22;8771;48.048;7.682;2023-07-31T21:32:25;22.80;59.10
17307;DHT22;8771;48.048;7.682;2023-07-31T21:37:27;22.70;59.10
17307;DHT22;8771;48.048;7.682;2023-07-31T21:42:31;22.70;59.10
17307;DHT22;8771;48.048;7.682;2023-07-31T21:47:33;22.60;59.20
17307;DHT22;8771;48.048;7.682;2023-07-31T21:52:35;22.50;59.30
17307;DHT22;8771;48.048;7.682;2023-07-31T21:57:38;22.50;59.30
17307;DHT22;8771;48.048;7.682;2023-07-31T22:02:40;22.40;59.30
17307;DHT22;8771;48.048;7.682;2023-07-31T22:07:42;22.40;59.40
17307;DHT22;8771;48.048;7.682;2023-07-31T22:12:46;22.30;59.30
17307;DHT22;8771;48.048;7.682;2023-07-31T22:17:48;22.30;59.40
17307;DHT22;8771;48.048;7.682;2023-07-31T22:22:50;22.20;59.40
17307;DHT22;8771;48.048;7.682;2023-07-31T22:27:54;22.20;59.50
17307;DHT22;8771;48.048;7.682;2023-07-31T22:32:55;22.10;59.50
17307;DHT22;8771;48.048;7.682;2023-07-31T22:37:57;22.10;59.60
17307;DHT22;8771;48.048;7.682;2023-07-31T22:43:01;22.10;59.60
17307;DHT22;8771;48.048;7.682;2023-07-31T22:48:03;22.00;59.60
17307;DHT22;8771;48.048;7.682;2023-07-31T22:53:05;22.00;59.60
17307;DHT22;8771;48.048;7.682;2023-07-31T22:58:09;22.00;59.60
17307;DHT22;8771;48.048;7.682;2023-07-31T23:03:11;22.00;59.70
17307;DHT22;8771;48.048;7.682;2023-07-31T23:08:12;22.00;59.70
17307;DHT22;8771;48.048;7.682;2023-07-31T23:13:16;21.90;59.70
17307;DHT22;8771;48.048;7.682;2023-07-31T23:18:18;21.90;59.90
17307;DHT22;8771;48.048;7.682;2023-07-31T23:23:20;21.90;59.90
17307;DHT22;8771;48.048;7.682;2023-07-31T23:28:23;21.90;59.90
17307;DHT22;8771;48.048;7.682;2023-07-31T23:33:25;21.80;59.90
17307;DHT22;8771;48.048;7.682;2023-07-31T23:38:27;21.90;59.90
17307;DHT22;8771;48.048;7.682;2023-07-31T23:43:31;21.80;59.90
17307;DHT22;8771;48.048;7.682;2023-07-31T23:48:33;21.80;59.90
17307;DHT22;8771;48.048;7.682;2023-07-31T23:53:34;21.80;59.90
17307;DHT22;8771;48.048;7.682;2023-07-31T23:58:38;21.80;60.00
